sensor_id;sensor_type;location;lat;lon;timestamp;pressure;altitude;pressure_sealevel;temperature;humidity
17054;BME280;8643;48.824;11.422;2023-04-30T00:00:03;97164.31;;;8.84;100.00
17054;BME280;8643;48.824;11.422;2023-04-30T00:02:36;97160.66;;;8.89;100.00
17054;BME280;8643;48.824;11.422;2023-04-30T00:05:06;97173.94;;;8.81;100.00
17054;BME280;8643;48.824;11.422;2023-04-30T00:07:35;97166.56;;;8.82;100.00
17054;BME280;8643;48.824;11.422;2023-04-30T00:10:10;97175.56;;;8.83;100.00
17054;BME280;8643;48.824;11.422;2023-04-30T00:12:40;97173.00;;;8.86;100.00
17054;BME280;8643;48.824;11.422;2023-04-30T00:15:09;97175.41;;;8.88;100.00
17054;BME280;8643;48.824;11.422;2023-04-30T00:17:39;97174.16;;;8.94;100.00
17054;BME280;8643;48.824;11.422;2023-04-30T00:20:08;97174.97;;;8.94;100.00
17054;BME280;8643;48.824;11.422;2023-04-30T00:22:38;97171.59;;;8.97;100.00
17054;BME280;8643;48.824;11.422;2023-04-30T00:25:09;97168.69;;;8.94;100.00
17054;BME280;8643;48.824;11.422;2023-04-30T00:27:38;97174.97;;;8.94;100.00
17054;BME280;8643;48.824;11.422;2023-04-30T00:30:08;97181.56;;;8.93;100.00
17054;BME280;8643;48.824;11.422;2023-04-30T00:32:37;97172.44;;;8.98;100.00
17054;BME280;8643;48.824;11.422;2023-04-30T00:35:06;97178.00;;;8.93;100.00
17054;BME280;8643;48.824;11.422;2023-04-30T00:37:35;97187.03;;;8.93;100.00
17054;BME280;8643;48.824;11.422;2023-04-30T00:40:05;97184.75;;;8.87;100.00
17054;BME280;8643;48.824;11.422;2023-04-30T00:42:35;97182.81;;;8.87;100.00
17054;BME280;8643;48.824;11.422;2023-04-30T00:45:06;97186.72;;;8.95;100.00
17054;BME280;8643;48.824;11.422;2023-04-30T00:47:35;97176.91;;;9.03;100.00
17054;BME280;8643;48.824;11.422;2023-04-30T00:50:05;97186.41;;;9.05;100.00
17054;BME280;8643;48.824;11.422;2023-04-30T00:52:34;97186.09;;;9.07;100.00
17054;BME280;8643;48.824;11.422;2023-04-30T00:55:03;97189.31;;;9.09;100.00
17054;BME280;8643;48.824;11.422;2023-04-30T00:57:35;97189.28;;;9.00;100.00
17054;BME280;8643;48.824;11.422;2023-04-30T01:00:06;97186.72;;;8.95;100.00
17054;BME280;8643;48.824;11.422;2023-04-30T01:02:38;97184.16;;;8.98;100.00
17054;BME280;8643;48.824;11.422;2023-04-30T01:05:07;97184.78;;;8.95;100.00
17054;BME280;8643;48.824;11.422;2023-04-30T01:07:37;97187.19;;;8.97;100.00
17054;BME280;8643;48.824;11.422;2023-04-30T01:10:11;97185.13;;;9.03;100.00
17054;BME280;8643;48.824;11.422;2023-04-30T01:12:45;97188.03;;;9.06;100.00
17054;BME280;8643;48.824;11.422;2023-04-30T01:15:23;97184.66;;;9.09;100.00
17054;BME280;8643;48.824;11.422;2023-04-30T01:17:58;97197.81;;;9.07;100.00
17054;BME280;8643;48.824;11.422;2023-04-30T01:20:32;97195.09;;;9.07;100.00
17054;BME280;8643;48.824;11.422;2023-04-30T01:23:17;97200.06;;;9.05;100.00
17054;BME280;8643;48.824;11.422;2023-04-30T01:26:03;97201.50;;;9.03;100.00
17054;BME280;8643;48.824;11.422;2023-04-30T01:28:37;97199.22;;;8.96;100.00
17054;BME280;8643;48.824;11.422;2023-04-30T01:31:14;97215.31;;;8.97;100.00
17054;BME280;8643;48.824;11.422;2023-04-30T01:33:44;97210.97;;;8.96;100.00
17054;BME280;8643;48.824;11.422;2023-04-30T01:36:28;97209.66;;;8.94;100.00
17054;BME280;8643;48.824;11.422;2023-04-30T01:39:16;97207.38;;;8.87;100.00
17054;BME280;8643;48.824;11.422;2023-04-30T01:41:55;97209.31;;;8.87;100.00
17054;BME280;8643;48.824;11.422;2023-04-30T01:45:03;97218.31;;;8.87;100.00
17054;BME280;8643;48.824;11.422;2023-04-30T01:47:39;97219.63;;;8.90;100.00
17054;BME280;8643;48.824;11.422;2023-04-30T01:50:24;97224.31;;;8.98;100.00
17054;BME280;8643;48.824;11.422;2023-04-30T01:52:55;97213.50;;;8.93;100.00
17054;BME280;8643;48.824;11.422;2023-04-30T01:55:29;97216.44;;;8.96;100.00
17054;BME280;8643;48.824;11.422;2023-04-30T01:58:06;97213.19;;;8.94;100.00
17054;BME280;8643;48.824;11.422;2023-04-30T02:00:39;97213.88;;;9.00;100.00
17054;BME280;8643;48.824;11.422;2023-04-30T02:03:08;97215.94;;;8.94;100.00
17054;BME280;8643;48.824;11.422;2023-04-30T02:05:37;97221.69;;;8.93;100.00
17054;BME280;8643;48.824;11.422;2023-04-30T02:08:06;97222.38;;;8.98;100.00
17054;BME280;8643;48.824;11.422;2023-04-30T02:10:35;97214.97;;;8.90;100.00
17054;BME280;8643;48.824;11.422;2023-04-30T02:13:04;97218.50;;;8.91;100.00
17054;BME280;8643;48.824;11.422;2023-04-30T02:15:33;97219.28;;;8.91;100.00
17054;BME280;8643;48.824;11.422;2023-04-30T02:18:03;97223.31;;;8.94;100.00
17054;BME280;8643;48.824;11.422;2023-04-30T02:20:33;97214.47;;;8.88;100.00
17054;BME280;8643;48.824;11.422;2023-04-30T02:23:02;97221.34;;;8.86;100.00
17054;BME280;8643;48.824;11.422;2023-04-30T02:25:30;97215.72;;;8.82;100.00
17054;BME280;8643;48.824;11.422;2023-04-30T02:28:04;97220.50;;;8.76;100.00
17054;BME280;8643;48.824;11.422;2023-04-30T02:30:33;97219.69;;;8.76;100.00
17054;BME280;8643;48.824;11.422;2023-04-30T02:33:03;97223.06;;;8.73;100.00
17054;BME280;8643;48.824;11.422;2023-04-30T02:35:32;97225.03;;;8.81;100.00
17054;BME280;8643;48.824;11.422;2023-04-30T02:38:01;97223.75;;;8.78;100.00
17054;BME280;8643;48.824;11.422;2023-04-30T02:40:30;97221.81;;;8.79;100.00
17054;BME280;8643;48.824;11.422;2023-04-30T02:42:59;97218.59;;;8.77;100.00
17054;BME280;8643;48.824;11.422;2023-04-30T02:45:30;97229.50;;;8.77;100.00
17054;BME280;8643;48.824;11.422;2023-04-30T02:47:59;97231.41;;;8.76;100.00
17054;BME280;8643;48.824;11.422;2023-04-30T02:50:29;97230.31;;;8.77;100.00
17054;BME280;8643;48.824;11.422;2023-04-30T02:52:58;97227.56;;;8.77;100.00
17054;BME280;8643;48.824;11.422;2023-04-30T02:55:27;97228.91;;;8.80;100.00
17054;BME280;8643;48.824;11.422;2023-04-30T02:57:56;97222.91;;;8.78;100.00
17054;BME280;8643;48.824;11.422;2023-04-30T03:00:25;97223.91;;;8.82;100.00
17054;BME280;8643;48.824;11.422;2023-04-30T03:02:54;97219.38;;;8.77;100.00
17054;BME280;8643;48.824;11.422;2023-04-30T03:05:23;97223.06;;;8.73;100.00
17054;BME280;8643;48.824;11.422;2023-04-30T03:07:54;97222.56;;;8.71;100.00
17054;BME280;8643;48.824;11.422;2023-04-30T03:10:23;97222.56;;;8.71;100.00
17054;BME280;8643;48.824;11.422;2023-04-30T03:12:52;97229.63;;;8.72;100.00
17054;BME280;8643;48.824;11.422;2023-04-30T03:15:21;97210.50;;;8.72;100.00
17054;BME280;8643;48.824;11.422;2023-04-30T03:17:50;97218.59;;;8.77;100.00
17054;BME280;8643;48.824;11.422;2023-04-30T03:20:18;97217.63;;;8.81;100.00
17054;BME280;8643;48.824;11.422;2023-04-30T03:22:48;97217.75;;;8.76;100.00
17054;BME280;8643;48.824;11.422;2023-04-30T03:25:18;97217.75;;;8.76;100.00
17054;BME280;8643;48.824;11.422;2023-04-30T03:27:46;97212.75;;;8.70;100.00
17054;BME280;8643;48.824;11.422;2023-04-30T03:30:15;97207.78;;;8.72;100.00
17054;BME280;8643;48.824;11.422;2023-04-30T03:32:44;97213.75;;;8.74;100.00
17054;BME280;8643;48.824;11.422;2023-04-30T03:35:13;97215.97;;;8.72;100.00
17054;BME280;8643;48.824;11.422;2023-04-30T03:37:43;97218.69;;;8.72;100.00
17054;BME280;8643;48.824;11.422;2023-04-30T03:40:12;97219.34;;;8.69;100.00
17054;BME280;8643;48.824;11.422;2023-04-30T03:42:42;97211.25;;;8.63;100.00
17054;BME280;8643;48.824;11.422;2023-04-30T03:45:11;97214.75;;;8.55;100.00
17054;BME280;8643;48.824;11.422;2023-04-30T03:47:41;97218.47;;;8.59;100.00
17054;BME280;8643;48.824;11.422;2023-04-30T03:50:10;97213.03;;;8.59;100.00
17054;BME280;8643;48.824;11.422;2023-04-30T03:52:39;97212.63;;;8.52;100.00
17054;BME280;8643;48.824;11.422;2023-04-30T03:55:09;97210.44;;;8.54;100.00
17054;BME280;8643;48.824;11.422;2023-04-30T03:57:38;97209.91;;;8.52;100.00
17054;BME280;8643;48.824;11.422;2023-04-30T04:00:12;97213.16;;;8.54;100.00
17054;BME280;8643;48.824;11.422;2023-04-30T04:02:48;97206.38;;;8.52;100.00
17054;BME280;8643;48.824;11.422;2023-04-30T04:05:17;97202.84;;;8.51;100.00
17054;BME280;8643;48.824;11.422;2023-04-30T04:07:46;97202.38;;;8.49;100.00
17054;BME280;8643;48.824;11.422;2023-04-30T04:10:15;97206.03;;;8.44;100.00
17054;BME280;8643;48.824;11.422;2023-04-30T04:12:44;97207.63;;;8.46;100.00
17054;BME280;8643;48.824;11.422;2023-04-30T04:15:15;97213.59;;;8.48;100.00
17054;BME280;8643;48.824;11.422;2023-04-30T04:17:44;97216.81;;;8.50;100.00
17054;BME280;8643;48.824;11.422;2023-04-30T04:20:13;97217.63;;;8.50;100.00
17054;BME280;8643;48.824;11.422;2023-04-30T04:22:43;97223.06;;;8.50;100.00
17054;BME280;8643;48.824;11.422;2023-04-30T04:25:12;97220.78;;;8.43;100.00
17054;BME280;8643;48.824;11.422;2023-04-30T04:27:43;97231.50;;;8.40;100.00
17054;BME280;8643;48.824;11.422;2023-04-30T04:30:15;97229.88;;;8.39;100.00
17054;BME280;8643;48.824;11.422;2023-04-30T04:32:46;97234.13;;;8.45;100.00
17054;BME280;8643;48.824;11.422;2023-04-30T04:35:17;97237.34;;;8.47;100.00
17054;BME280;8643;48.824;11.422;2023-04-30T04:37:47;97243.31;;;8.49;100.00
17054;BME280;8643;48.824;11.422;2023-04-30T04:40:16;97237.66;;;8.46;100.00
17054;BME280;8643;48.824;11.422;2023-04-30T04:42:44;97231.44;;;8.54;100.00
17054;BME280;8643;48.824;11.422;2023-04-30T04:45:17;97240.16;;;8.56;100.00
17054;BME280;8643;48.824;11.422;2023-04-30T04:47:48;97239.63;;;8.54;100.00
17054;BME280;8643;48.824;11.422;2023-04-30T04:50:17;97250.22;;;8.55;100.00
17054;BME280;8643;48.824;11.422;2023-04-30T04:52:46;97246.41;;;8.56;100.00
17054;BME280;8643;48.824;11.422;2023-04-30T04:55:14;97244.16;;;8.58;100.00
17054;BME280;8643;48.824;11.422;2023-04-30T04:57:44;97245.66;;;8.65;100.00
17054;BME280;8643;48.824;11.422;2023-04-30T05:00:13;97240.06;;;8.70;100.00
17054;BME280;8643;48.824;11.422;2023-04-30T05:02:44;97247.81;;;8.76;100.00
17054;BME280;8643;48.824;11.422;2023-04-30T05:05:13;97250.53;;;8.76;100.00
17054;BME280;8643;48.824;11.422;2023-04-30T05:07:42;97251.72;;;8.84;100.00
17054;BME280;8643;48.824;11.422;2023-04-30T05:10:12;97254.59;;;8.88;100.00
17054;BME280;8643;48.824;11.422;2023-04-30T05:12:41;97254.78;;;8.91;100.00
17054;BME280;8643;48.824;11.422;2023-04-30T05:15:10;97253.31;;;8.85;100.00
17054;BME280;8643;48.824;11.422;2023-04-30T05:17:38;97250.47;;;8.90;100.00
17054;BME280;8643;48.824;11.422;2023-04-30T05:20:11;97256.41;;;8.92;100.00
17054;BME280;8643;48.824;11.422;2023-04-30T05:22:40;97260.97;;;9.06;100.00
17054;BME280;8643;48.824;11.422;2023-04-30T05:25:09;97267.72;;;8.99;100.00
17054;BME280;8643;48.824;11.422;2023-04-30T05:27:37;97264.69;;;9.10;100.00
17054;BME280;8643;48.824;11.422;2023-04-30T05:30:08;97263.88;;;9.09;100.00
17054;BME280;8643;48.824;11.422;2023-04-30T05:32:37;97261.66;;;9.11;100.00
17054;BME280;8643;48.824;11.422;2023-04-30T05:35:06;97268.16;;;9.24;100.00
17054;BME280;8643;48.824;11.422;2023-04-30T05:37:36;97266.09;;;9.39;100.00
17054;BME280;8643;48.824;11.422;2023-04-30T05:40:06;97266.91;;;9.39;100.00
17054;BME280;8643;48.824;11.422;2023-04-30T05:42:35;97265.47;;;9.42;100.00
17054;BME280;8643;48.824;11.422;2023-04-30T05:45:07;97268.25;;;9.50;100.00
17054;BME280;8643;48.824;11.422;2023-04-30T05:47:36;97260.53;;;9.52;100.00
17054;BME280;8643;48.824;11.422;2023-04-30T05:50:08;97262.94;;;9.54;100.00
17054;BME280;8643;48.824;11.422;2023-04-30T05:52:38;97272.44;;;9.57;100.00
17054;BME280;8643;48.824;11.422;2023-04-30T05:55:08;97267.47;;;9.67;100.00
17054;BME280;8643;48.824;11.422;2023-04-30T05:57:37;97275.25;;;9.83;100.00
17054;BME280;8643;48.824;11.422;2023-04-30T06:00:07;97267.84;;;9.92;100.00
17054;BME280;8643;48.824;11.422;2023-04-30T06:02:39;97265.63;;;10.03;100.00
17054;BME280;8643;48.824;11.422;2023-04-30T06:05:08;97267.41;;;10.07;100.00
17054;BME280;8643;48.824;11.422;2023-04-30T06:07:42;97258.44;;;10.42;100.00
17054;BME280;8643;48.824;11.422;2023-04-30T06:10:10;97269.69;;;10.58;100.00
17054;BME280;8643;48.824;11.422;2023-04-30T06:12:39;97265.19;;;10.53;100.00
17054;BME280;8643;48.824;11.422;2023-04-30T06:15:08;97268.38;;;10.73;100.00
17054;BME280;8643;48.824;11.422;2023-04-30T06:17:37;97264.22;;;11.61;100.00
17054;BME280;8643;48.824;11.422;2023-04-30T06:20:07;97261.13;;;12.01;100.00
17054;BME280;8643;48.824;11.422;2023-04-30T06:22:36;97261.72;;;11.47;100.00
17054;BME280;8643;48.824;11.422;2023-04-30T06:25:07;97274.41;;;11.52;100.00
17054;BME280;8643;48.824;11.422;2023-04-30T06:27:36;97260.09;;;11.76;100.00
17054;BME280;8643;48.824;11.422;2023-04-30T06:30:06;97267.34;;;11.81;100.00
17054;BME280;8643;48.824;11.422;2023-04-30T06:32:35;97258.03;;;12.03;100.00
17054;BME280;8643;48.824;11.422;2023-04-30T06:35:04;97261.94;;;12.44;100.00
17054;BME280;8643;48.824;11.422;2023-04-30T06:37:33;97260.47;;;12.80;100.00
17054;BME280;8643;48.824;11.422;2023-04-30T06:40:07;97263.50;;;13.12;99.93
17054;BME280;8643;48.824;11.422;2023-04-30T06:42:36;97266.06;;;13.17;97.91
17054;BME280;8643;48.824;11.422;2023-04-30T06:45:06;97266.81;;;13.51;97.02
17054;BME280;8643;48.824;11.422;2023-04-30T06:47:35;97265.44;;;13.94;97.02
17054;BME280;8643;48.824;11.422;2023-04-30T06:50:06;97262.09;;;13.88;94.24
17054;BME280;8643;48.824;11.422;2023-04-30T06:52:34;97257.53;;;13.55;93.11
17054;BME280;8643;48.824;11.422;2023-04-30T06:55:04;97266.03;;;13.50;93.52
17054;BME280;8643;48.824;11.422;2023-04-30T06:57:34;97268.00;;;14.27;90.83
17054;BME280;8643;48.824;11.422;2023-04-30T07:00:04;97261.28;;;14.12;91.44
17054;BME280;8643;48.824;11.422;2023-04-30T07:02:33;97265.25;;;14.27;88.95
17054;BME280;8643;48.824;11.422;2023-04-30T07:05:02;97272.41;;;14.16;90.76
17054;BME280;8643;48.824;11.422;2023-04-30T07:07:31;97269.47;;;13.97;90.23
17054;BME280;8643;48.824;11.422;2023-04-30T07:09:59;97271.75;;;14.07;88.76
17054;BME280;8643;48.824;11.422;2023-04-30T07:12:30;97278.31;;;14.43;89.55
17054;BME280;8643;48.824;11.422;2023-04-30T07:14:58;97280.13;;;14.63;89.67
17054;BME280;8643;48.824;11.422;2023-04-30T07:17:27;97270.41;;;14.41;88.55
17054;BME280;8643;48.824;11.422;2023-04-30T07:19:56;97271.41;;;14.90;87.61
17054;BME280;8643;48.824;11.422;2023-04-30T07:22:24;97270.13;;;14.59;85.86
17054;BME280;8643;48.824;11.422;2023-04-30T07:24:54;97271.97;;;14.67;84.08
17054;BME280;8643;48.824;11.422;2023-04-30T07:27:23;97267.47;;;14.91;83.72
17054;BME280;8643;48.824;11.422;2023-04-30T07:29:53;97258.72;;;15.17;80.83
17054;BME280;8643;48.824;11.422;2023-04-30T07:32:22;97262.22;;;15.62;82.85
17054;BME280;8643;48.824;11.422;2023-04-30T07:34:54;97261.47;;;15.97;78.25
17054;BME280;8643;48.824;11.422;2023-04-30T07:37:22;97269.41;;;16.34;78.54
17054;BME280;8643;48.824;11.422;2023-04-30T07:39:51;97268.75;;;16.40;80.69
17054;BME280;8643;48.824;11.422;2023-04-30T07:42:20;97272.19;;;15.82;75.91
17054;BME280;8643;48.824;11.422;2023-04-30T07:44:51;97274.94;;;15.50;78.47
17054;BME280;8643;48.824;11.422;2023-04-30T07:47:20;97273.00;;;15.83;79.50
17054;BME280;8643;48.824;11.422;2023-04-30T07:49:49;97265.47;;;16.15;78.01
17054;BME280;8643;48.824;11.422;2023-04-30T07:52:18;97258.50;;;16.80;77.39
17054;BME280;8643;48.824;11.422;2023-04-30T07:54:46;97268.28;;;16.74;73.40
17054;BME280;8643;48.824;11.422;2023-04-30T07:57:16;97265.13;;;16.95;71.91
17054;BME280;8643;48.824;11.422;2023-04-30T07:59:44;97256.69;;;17.07;71.97
17054;BME280;8643;48.824;11.422;2023-04-30T08:02:19;97263.00;;;16.68;73.70
17054;BME280;8643;48.824;11.422;2023-04-30T08:04:48;97262.97;;;17.27;74.44
17054;BME280;8643;48.824;11.422;2023-04-30T08:07:17;97259.59;;;16.95;71.40
17054;BME280;8643;48.824;11.422;2023-04-30T08:09:47;97265.66;;;16.61;72.05
17054;BME280;8643;48.824;11.422;2023-04-30T08:12:16;97271.69;;;16.86;69.34
17054;BME280;8643;48.824;11.422;2023-04-30T08:14:45;97267.16;;;15.08;74.17
17054;BME280;8643;48.824;11.422;2023-04-30T08:17:13;97266.97;;;14.32;79.25
17054;BME280;8643;48.824;11.422;2023-04-30T08:19:43;97270.03;;;13.78;82.01
17054;BME280;8643;48.824;11.422;2023-04-30T08:22:12;97274.13;;;13.34;83.42
17054;BME280;8643;48.824;11.422;2023-04-30T08:24:40;97272.59;;;13.25;84.89
17054;BME280;8643;48.824;11.422;2023-04-30T08:27:09;97272.09;;;13.44;83.93
17054;BME280;8643;48.824;11.422;2023-04-30T08:29:38;97261.59;;;13.25;84.34
17054;BME280;8643;48.824;11.422;2023-04-30T08:32:06;97261.66;;;13.37;80.07
17054;BME280;8643;48.824;11.422;2023-04-30T08:34:35;97265.69;;;13.77;79.70
17054;BME280;8643;48.824;11.422;2023-04-30T08:37:05;97269.94;;;13.74;80.75
17054;BME280;8643;48.824;11.422;2023-04-30T08:39:34;97265.56;;;13.85;83.18
17054;BME280;8643;48.824;11.422;2023-04-30T08:42:07;97267.28;;;13.65;82.07
17054;BME280;8643;48.824;11.422;2023-04-30T08:44:36;97261.75;;;13.28;81.86
17054;BME280;8643;48.824;11.422;2023-04-30T08:47:10;97268.63;;;12.89;82.94
17054;BME280;8643;48.824;11.422;2023-04-30T08:49:40;97264.97;;;12.97;86.16
17054;BME280;8643;48.824;11.422;2023-04-30T08:52:10;97267.47;;;12.90;83.09
17054;BME280;8643;48.824;11.422;2023-04-30T08:54:39;97269.91;;;12.91;81.68
17054;BME280;8643;48.824;11.422;2023-04-30T08:57:07;97271.75;;;12.99;85.54
17054;BME280;8643;48.824;11.422;2023-04-30T08:59:36;97270.13;;;12.98;85.69
17054;BME280;8643;48.824;11.422;2023-04-30T09:02:05;97271.38;;;12.89;86.59
17054;BME280;8643;48.824;11.422;2023-04-30T09:04:34;97277.41;;;12.82;89.70
17054;BME280;8643;48.824;11.422;2023-04-30T09:07:03;97269.13;;;12.70;90.75
17054;BME280;8643;48.824;11.422;2023-04-30T09:09:39;97275.97;;;12.63;90.92
17054;BME280;8643;48.824;11.422;2023-04-30T09:12:12;97280.28;;;12.52;87.48
17054;BME280;8643;48.824;11.422;2023-04-30T09:14:59;97280.41;;;12.14;84.42
17054;BME280;8643;48.824;11.422;2023-04-30T09:17:29;97280.81;;;12.24;86.60
17054;BME280;8643;48.824;11.422;2023-04-30T09:20:07;97283.91;;;12.44;88.52
17054;BME280;8643;48.824;11.422;2023-04-30T09:22:37;97281.63;;;12.46;88.41
17054;BME280;8643;48.824;11.422;2023-04-30T09:25:09;97281.41;;;12.51;88.64
17054;BME280;8643;48.824;11.422;2023-04-30T09:27:38;97280.94;;;12.70;92.58
17054;BME280;8643;48.824;11.422;2023-04-30T09:30:08;97277.84;;;12.72;90.49
17054;BME280;8643;48.824;11.422;2023-04-30T09:32:57;97281.09;;;12.86;87.40
17054;BME280;8643;48.824;11.422;2023-04-30T09:35:31;97280.84;;;13.12;88.35
17054;BME280;8643;48.824;11.422;2023-04-30T09:38:00;97283.38;;;13.17;85.65
17054;BME280;8643;48.824;11.422;2023-04-30T09:40:35;97283.31;;;13.38;83.68
17054;BME280;8643;48.824;11.422;2023-04-30T09:43:04;97280.38;;;13.56;83.50
17054;BME280;8643;48.824;11.422;2023-04-30T09:45:41;97275.78;;;13.60;83.49
17054;BME280;8643;48.824;11.422;2023-04-30T09:48:10;97276.66;;;14.14;83.22
17054;BME280;8643;48.824;11.422;2023-04-30T09:50:44;97279.66;;;14.61;78.25
17054;BME280;8643;48.824;11.422;2023-04-30T09:53:14;97284.75;;;15.03;78.41
17054;BME280;8643;48.824;11.422;2023-04-30T09:55:46;97288.09;;;15.25;77.14
17054;BME280;8643;48.824;11.422;2023-04-30T09:58:17;97280.75;;;14.32;76.63
17054;BME280;8643;48.824;11.422;2023-04-30T10:00:46;97282.34;;;14.33;79.22
17054;BME280;8643;48.824;11.422;2023-04-30T10:03:19;97273.94;;;14.42;82.86
17054;BME280;8643;48.824;11.422;2023-04-30T10:05:51;97281.47;;;14.04;80.23
17054;BME280;8643;48.824;11.422;2023-04-30T10:08:26;97276.94;;;13.84;79.84
17054;BME280;8643;48.824;11.422;2023-04-30T10:11:00;97284.59;;;13.78;80.79
17054;BME280;8643;48.824;11.422;2023-04-30T10:13:32;97278.06;;;13.70;78.92
17054;BME280;8643;48.824;11.422;2023-04-30T10:16:08;97267.84;;;13.34;79.07
17054;BME280;8643;48.824;11.422;2023-04-30T10:18:42;97277.16;;;13.66;79.51
17054;BME280;8643;48.824;11.422;2023-04-30T10:21:13;97274.25;;;14.00;79.36
17054;BME280;8643;48.824;11.422;2023-04-30T10:23:45;97267.91;;;15.37;77.25
17054;BME280;8643;48.824;11.422;2023-04-30T10:26:15;97264.53;;;15.44;69.56
17054;BME280;8643;48.824;11.422;2023-04-30T10:28:47;97259.75;;;17.02;67.43
17054;BME280;8643;48.824;11.422;2023-04-30T10:31:17;97245.50;;;17.00;72.55
17054;BME280;8643;48.824;11.422;2023-04-30T10:34:02;97256.25;;;18.24;65.54
17054;BME280;8643;48.824;11.422;2023-04-30T10:36:38;97248.56;;;17.87;66.48
17054;BME280;8643;48.824;11.422;2023-04-30T10:39:11;97248.19;;;16.57;69.42
17054;BME280;8643;48.824;11.422;2023-04-30T10:41:44;97255.69;;;15.38;68.97
17054;BME280;8643;48.824;11.422;2023-04-30T10:44:13;97254.41;;;14.59;72.13
17054;BME280;8643;48.824;11.422;2023-04-30T10:46:45;97255.53;;;14.58;73.01
17054;BME280;8643;48.824;11.422;2023-04-30T10:49:14;97246.78;;;14.28;70.53
17054;BME280;8643;48.824;11.422;2023-04-30T10:51:47;97251.81;;;14.38;71.97
17054;BME280;8643;48.824;11.422;2023-04-30T10:54:25;97253.00;;;14.12;71.67
17054;BME280;8643;48.824;11.422;2023-04-30T10:57:09;97247.75;;;14.20;74.50
17054;BME280;8643;48.824;11.422;2023-04-30T10:59:43;97244.50;;;14.18;77.33
17054;BME280;8643;48.824;11.422;2023-04-30T11:02:15;97241.97;;;14.25;75.37
17054;BME280;8643;48.824;11.422;2023-04-30T11:05:09;97236.25;;;14.18;73.43
17054;BME280;8643;48.824;11.422;2023-04-30T11:07:50;97236.03;;;14.10;76.26
17054;BME280;8643;48.824;11.422;2023-04-30T11:10:21;97228.56;;;14.64;77.72
17054;BME280;8643;48.824;11.422;2023-04-30T11:12:54;97242.59;;;15.03;76.36
17054;BME280;8643;48.824;11.422;2023-04-30T11:15:25;97235.25;;;15.39;79.74
17054;BME280;8643;48.824;11.422;2023-04-30T11:17:56;97226.03;;;16.18;77.55
17054;BME280;8643;48.824;11.422;2023-04-30T11:20:26;97226.53;;;16.40;69.74
17054;BME280;8643;48.824;11.422;2023-04-30T11:23:08;97227.00;;;16.26;67.44
17054;BME280;8643;48.824;11.422;2023-04-30T11:25:41;97220.72;;;16.09;68.58
17054;BME280;8643;48.824;11.422;2023-04-30T11:28:16;97224.63;;;16.44;73.41
17054;BME280;8643;48.824;11.422;2023-04-30T11:30:51;97218.22;;;16.79;74.69
17054;BME280;8643;48.824;11.422;2023-04-30T11:33:21;97216.16;;;16.95;71.63
17054;BME280;8643;48.824;11.422;2023-04-30T11:35:51;97209.66;;;17.80;67.50
17054;BME280;8643;48.824;11.422;2023-04-30T11:38:25;97210.47;;;17.81;63.52
17054;BME280;8643;48.824;11.422;2023-04-30T11:40:55;97210.16;;;17.13;65.27
17054;BME280;8643;48.824;11.422;2023-04-30T11:43:26;97218.22;;;16.40;66.17
17054;BME280;8643;48.824;11.422;2023-04-30T11:46:05;97215.34;;;16.95;71.68
17054;BME280;8643;48.824;11.422;2023-04-30T11:48:35;97206.56;;;17.35;66.49
17054;BME280;8643;48.824;11.422;2023-04-30T11:51:13;97207.69;;;17.81;60.99
17054;BME280;8643;48.824;11.422;2023-04-30T11:53:44;97213.09;;;17.47;62.41
17054;BME280;8643;48.824;11.422;2023-04-30T11:56:14;97209.34;;;17.58;57.54
17054;BME280;8643;48.824;11.422;2023-04-30T11:58:48;97216.16;;;17.88;56.81
17054;BME280;8643;48.824;11.422;2023-04-30T12:01:17;97205.09;;;20.35;50.82
17054;BME280;8643;48.824;11.422;2023-04-30T12:03:49;97202.50;;;20.78;52.60
17054;BME280;8643;48.824;11.422;2023-04-30T12:06:24;97203.00;;;21.95;57.29
17054;BME280;8643;48.824;11.422;2023-04-30T12:08:54;97198.06;;;22.64;55.90
17054;BME280;8643;48.824;11.422;2023-04-30T12:11:25;97200.22;;;23.16;58.79
17054;BME280;8643;48.824;11.422;2023-04-30T12:13:59;97187.53;;;21.79;53.96
17054;BME280;8643;48.824;11.422;2023-04-30T12:16:40;97195.00;;;22.22;52.08
17054;BME280;8643;48.824;11.422;2023-04-30T12:19:11;97191.81;;;20.87;57.37
17054;BME280;8643;48.824;11.422;2023-04-30T12:21:42;97198.97;;;19.48;62.34
17054;BME280;8643;48.824;11.422;2023-04-30T12:24:13;97190.69;;;18.09;61.43
17054;BME280;8643;48.824;11.422;2023-04-30T12:26:42;97200.06;;;18.01;65.14
17054;BME280;8643;48.824;11.422;2023-04-30T12:29:16;97197.13;;;18.47;61.97
17054;BME280;8643;48.824;11.422;2023-04-30T12:31:47;97200.66;;;19.12;58.73
17054;BME280;8643;48.824;11.422;2023-04-30T12:34:17;97200.44;;;19.35;58.62
17054;BME280;8643;48.824;11.422;2023-04-30T12:36:45;97188.09;;;18.88;65.26
17054;BME280;8643;48.824;11.422;2023-04-30T12:39:15;97193.31;;;18.28;62.38
17054;BME280;8643;48.824;11.422;2023-04-30T12:41:46;97188.44;;;17.88;55.95
17054;BME280;8643;48.824;11.422;2023-04-30T12:44:21;97194.31;;;18.13;62.20
17054;BME280;8643;48.824;11.422;2023-04-30T12:46:51;97184.69;;;20.02;57.58
17054;BME280;8643;48.824;11.422;2023-04-30T12:49:24;97185.53;;;21.87;51.69
17054;BME280;8643;48.824;11.422;2023-04-30T12:51:57;97173.69;;;22.75;50.71
17054;BME280;8643;48.824;11.422;2023-04-30T12:54:28;97169.63;;;21.63;47.54
17054;BME280;8643;48.824;11.422;2023-04-30T12:56:59;97178.75;;;21.45;53.93
17054;BME280;8643;48.824;11.422;2023-04-30T12:59:31;97171.88;;;22.25;53.98
17054;BME280;8643;48.824;11.422;2023-04-30T13:02:08;97179.94;;;21.76;48.25
17054;BME280;8643;48.824;11.422;2023-04-30T13:04:37;97175.44;;;22.26;51.65
17054;BME280;8643;48.824;11.422;2023-04-30T13:07:06;97171.78;;;22.50;49.86
17054;BME280;8643;48.824;11.422;2023-04-30T13:09:36;97164.25;;;22.51;48.14
17054;BME280;8643;48.824;11.422;2023-04-30T13:12:05;97164.69;;;22.35;51.91
17054;BME280;8643;48.824;11.422;2023-04-30T13:14:35;97167.88;;;22.37;54.25
17054;BME280;8643;48.824;11.422;2023-04-30T13:17:04;97163.63;;;21.78;47.95
17054;BME280;8643;48.824;11.422;2023-04-30T13:19:34;97166.25;;;20.56;50.99